createdAt,value
2023-12-09T00:00:47.213Z,-3.43
2023-12-09T00:03:36.766Z,-3.46
2023-12-09T00:06:07.230Z,-3.47
2023-12-09T00:08:36.603Z,-3.49
2023-12-09T00:11:07.920Z,-3.51
2023-12-09T00:13:37.241Z,-3.52
2023-12-09T00:16:09.543Z,-3.52
2023-12-09T00:18:39.771Z,-3.51
2023-12-09T00:21:10.897Z,-3.50
2023-12-09T00:23:47.362Z,-3.51
2023-12-09T00:26:18.396Z,-3.49
2023-12-09T00:28:52.209Z,-3.51
2023-12-09T00:31:25.355Z,-3.52
2023-12-09T00:33:54.599Z,-3.54
2023-12-09T00:36:25.715Z,-3.55
2023-12-09T00:38:55.628Z,-3.54
2023-12-09T00:41:26.120Z,-3.53
2023-12-09T00:43:56.208Z,-3.53
2023-12-09T00:46:26.425Z,-3.55
2023-12-09T00:48:56.230Z,-3.55
2023-12-09T00:51:26.539Z,-3.52
2023-12-09T00:53:56.584Z,-3.51
2023-12-09T00:56:33.833Z,-3.50
2023-12-09T00:59:07.155Z,-3.49
2023-12-09T01:01:37.057Z,-3.49
2023-12-09T01:04:08.444Z,-3.49
2023-12-09T01:06:38.378Z,-3.49
2023-12-09T01:09:09.294Z,-3.50
2023-12-09T01:11:39.848Z,-3.51
2023-12-09T01:14:11.737Z,-3.50
2023-12-09T01:16:42.477Z,-3.49
2023-12-09T01:19:13.685Z,-3.51
2023-12-09T01:21:43.768Z,-3.50
2023-12-09T01:24:15.119Z,-3.49
2023-12-09T01:26:44.327Z,-3.49
2023-12-09T01:29:13.830Z,-3.48
2023-12-09T01:31:42.956Z,-3.48
2023-12-09T01:34:12.896Z,-3.47
2023-12-09T01:36:43.217Z,-3.48
2023-12-09T01:39:13.358Z,-3.49
2023-12-09T01:41:44.100Z,-3.50
2023-12-09T01:44:14.836Z,-3.50
2023-12-09T01:46:44.515Z,-3.50
2023-12-09T01:49:15.581Z,-3.52
2023-12-09T01:51:45.521Z,-3.52
2023-12-09T01:54:16.331Z,-3.53
2023-12-09T01:56:48.185Z,-3.53
2023-12-09T01:59:20.577Z,-3.52
2023-12-09T02:01:53.531Z,-3.52
2023-12-09T02:04:24.459Z,-3.52
2023-12-09T02:06:54.328Z,-3.51
2023-12-09T02:09:26.468Z,-3.52
2023-12-09T02:12:16.453Z,-3.55
2023-12-09T02:16:01.639Z,-3.55
2023-12-09T02:18:36.875Z,-3.57
2023-12-09T02:21:08.410Z,-3.57
2023-12-09T02:23:37.832Z,-3.58
2023-12-09T02:26:22.060Z,-3.58
2023-12-09T02:29:00.317Z,-3.56
2023-12-09T02:31:37.385Z,-3.56
2023-12-09T02:34:08.567Z,-3.58
2023-12-09T02:36:40.268Z,-3.60
2023-12-09T02:39:12.694Z,-3.60
2023-12-09T02:41:43.982Z,-3.60
2023-12-09T02:44:17.204Z,-3.57
2023-12-09T02:46:46.480Z,-3.55
2023-12-09T02:49:17.794Z,-3.58
2023-12-09T02:51:49.297Z,-3.59
2023-12-09T02:54:20.700Z,-3.60
2023-12-09T02:56:53.231Z,-3.60
2023-12-09T02:59:23.925Z,-3.60
2023-12-09T03:01:53.751Z,-3.60
2023-12-09T03:04:25.150Z,-3.61
2023-12-09T03:06:54.858Z,-3.62
2023-12-09T03:09:27.160Z,-3.62
2023-12-09T03:11:59.301Z,-3.64
2023-12-09T03:14:30.640Z,-3.63
2023-12-09T03:17:01.654Z,-3.62
2023-12-09T03:19:31.008Z,-3.61
2023-12-09T03:22:01.259Z,-3.59
2023-12-09T03:24:30.887Z,-3.58
2023-12-09T03:27:03.147Z,-3.58
2023-12-09T03:29:33.109Z,-3.60
2023-12-09T03:32:04.417Z,-3.61
2023-12-09T03:34:34.702Z,-3.59
2023-12-09T03:37:06.337Z,-3.59
2023-12-09T03:39:36.388Z,-3.59
2023-12-09T03:42:07.000Z,-3.59
2023-12-09T03:44:36.649Z,-3.59
2023-12-09T03:47:14.894Z,-3.58
2023-12-09T03:49:51.746Z,-3.58
2023-12-09T03:52:22.951Z,-3.58
2023-12-09T03:54:53.023Z,-3.59
2023-12-09T03:57:22.313Z,-3.62
2023-12-09T03:59:51.855Z,-3.61
2023-12-09T04:02:21.263Z,-3.60
2023-12-09T04:04:51.752Z,-3.61
2023-12-09T04:07:21.717Z,-3.64
2023-12-09T04:09:51.910Z,-3.65
2023-12-09T04:12:21.092Z,-3.65
2023-12-09T04:14:50.558Z,-3.63
2023-12-09T04:17:22.484Z,-3.63
2023-12-09T04:19:53.519Z,-3.63
2023-12-09T04:22:25.326Z,-3.63
2023-12-09T04:24:56.022Z,-3.62
2023-12-09T04:27:26.728Z,-3.63
2023-12-09T04:29:58.548Z,-3.65
2023-12-09T04:32:33.265Z,-3.64
2023-12-09T04:35:02.794Z,-3.63
2023-12-09T04:37:31.952Z,-3.61
2023-12-09T04:40:02.379Z,-3.60
2023-12-09T04:42:32.330Z,-3.59
2023-12-09T04:45:03.682Z,-3.59
2023-12-09T04:47:36.026Z,-3.57
2023-12-09T04:50:09.977Z,-3.56
2023-12-09T04:52:39.524Z,-3.55
2023-12-09T04:55:09.789Z,-3.54
2023-12-09T04:57:39.846Z,-3.53
2023-12-09T05:00:12.673Z,-3.52
2023-12-09T05:02:42.883Z,-3.52
2023-12-09T05:05:12.349Z,-3.51
2023-12-09T05:07:41.824Z,-3.50
2023-12-09T05:10:13.938Z,-3.50
2023-12-09T05:12:43.574Z,-3.51
2023-12-09T05:15:13.936Z,-3.49
2023-12-09T05:17:43.463Z,-3.50
2023-12-09T05:20:12.990Z,-3.49
2023-12-09T05:22:45.820Z,-3.47
2023-12-09T05:25:16.212Z,-3.46
2023-12-09T05:27:45.393Z,-3.43
2023-12-09T05:30:14.573Z,-3.43
2023-12-09T05:32:43.876Z,-3.41
2023-12-09T05:35:15.148Z,-3.40
2023-12-09T05:37:46.400Z,-3.38
2023-12-09T05:40:17.195Z,-3.36
2023-12-09T05:42:48.042Z,-3.34
2023-12-09T05:45:18.125Z,-3.33
2023-12-09T05:47:49.425Z,-3.30
2023-12-09T05:50:19.402Z,-3.30
2023-12-09T05:52:49.784Z,-3.30
2023-12-09T05:55:19.071Z,-3.30
2023-12-09T05:57:49.326Z,-3.29
2023-12-09T06:00:18.723Z,-3.28
2023-12-09T06:02:49.624Z,-3.28
2023-12-09T06:05:19.009Z,-3.28
2023-12-09T06:07:48.461Z,-3.28
2023-12-09T06:10:19.729Z,-3.27
2023-12-09T06:12:50.034Z,-3.25
2023-12-09T06:16:38.544Z,-3.24
2023-12-09T06:19:08.791Z,-3.21
2023-12-09T06:21:39.182Z,-3.19
2023-12-09T06:24:11.077Z,-3.19
2023-12-09T06:26:47.316Z,-3.18
2023-12-09T06:29:17.343Z,-3.17
2023-12-09T06:31:48.826Z,-3.17
2023-12-09T06:34:18.402Z,-3.16
2023-12-09T06:36:48.811Z,-3.16
2023-12-09T06:39:17.904Z,-3.15
2023-12-09T06:41:47.336Z,-3.15
2023-12-09T06:44:17.943Z,-3.15
2023-12-09T06:46:47.295Z,-3.13
2023-12-09T06:49:19.931Z,-3.12
2023-12-09T06:51:51.734Z,-3.09
2023-12-09T06:54:24.294Z,-3.07
2023-12-09T06:56:53.957Z,-3.07
2023-12-09T06:59:23.708Z,-3.06
2023-12-09T07:01:57.246Z,-3.04
2023-12-09T07:04:27.459Z,-3.03
2023-12-09T07:07:02.761Z,-3.01
2023-12-09T07:09:34.364Z,-2.96
2023-12-09T07:12:04.813Z,-2.96
2023-12-09T07:14:34.652Z,-2.96
2023-12-09T07:17:05.454Z,-2.93
2023-12-09T07:19:35.069Z,-2.88
2023-12-09T07:22:04.983Z,-2.82
2023-12-09T07:24:34.379Z,-2.80
2023-12-09T07:27:04.784Z,-2.80
2023-12-09T07:29:35.776Z,-2.79
2023-12-09T07:32:06.798Z,-2.74
2023-12-09T07:34:38.468Z,-2.72
2023-12-09T07:37:08.453Z,-2.70
2023-12-09T07:39:38.023Z,-2.68
2023-12-09T07:42:07.351Z,-2.70
2023-12-09T07:44:38.004Z,-2.71
2023-12-09T07:47:08.337Z,-2.72
2023-12-09T07:49:38.267Z,-2.72
2023-12-09T07:52:09.173Z,-2.70
2023-12-09T07:54:38.649Z,-2.69
2023-12-09T07:57:11.016Z,-2.67
2023-12-09T07:59:40.290Z,-2.65
2023-12-09T08:02:10.026Z,-2.65
2023-12-09T08:04:40.371Z,-2.61
2023-12-09T08:07:10.736Z,-2.58
2023-12-09T08:09:40.734Z,-2.57
2023-12-09T08:12:11.212Z,-2.56
2023-12-09T08:14:48.337Z,-2.53
2023-12-09T08:17:20.285Z,-2.53
2023-12-09T08:19:52.944Z,-2.53
2023-12-09T08:22:23.135Z,-2.55
2023-12-09T08:24:53.654Z,-2.53
2023-12-09T08:27:23.480Z,-2.53
2023-12-09T08:29:52.836Z,-2.53
2023-12-09T08:32:22.306Z,-2.50
2023-12-09T08:35:00.100Z,-2.48
2023-12-09T08:37:37.383Z,-2.47
2023-12-09T08:40:16.476Z,-2.45
2023-12-09T08:42:51.381Z,-2.44
2023-12-09T08:45:20.910Z,-2.43
2023-12-09T08:47:50.279Z,-2.40
2023-12-09T08:50:25.626Z,-2.39
2023-12-09T08:52:55.637Z,-2.39
2023-12-09T08:55:26.046Z,-2.37
2023-12-09T08:57:57.373Z,-2.38
2023-12-09T09:00:29.236Z,-2.37
2023-12-09T09:03:00.569Z,-2.35
2023-12-09T09:05:30.380Z,-2.33
2023-12-09T09:07:59.555Z,-2.32
2023-12-09T09:10:31.271Z,-2.32
2023-12-09T09:13:02.264Z,-2.26
2023-12-09T09:16:02.440Z,-2.23
2023-12-09T09:18:34.449Z,-2.20
2023-12-09T09:21:05.153Z,-2.18
2023-12-09T09:23:35.732Z,-2.15
2023-12-09T09:26:06.612Z,-2.15
2023-12-09T09:28:36.331Z,-2.12
2023-12-09T09:31:05.896Z,-2.08
2023-12-09T09:33:35.666Z,-2.05
2023-12-09T09:36:06.637Z,-2.04
2023-12-09T09:38:36.924Z,-2.00
2023-12-09T09:41:23.152Z,-1.97
2023-12-09T09:44:00.644Z,-1.95
2023-12-09T09:46:30.205Z,-1.92
2023-12-09T09:49:01.030Z,-1.91
2023-12-09T09:51:32.158Z,-1.87
2023-12-09T09:54:08.281Z,-1.89
2023-12-09T09:56:39.447Z,-1.89
2023-12-09T09:59:09.083Z,-1.84
2023-12-09T10:01:41.418Z,-1.78
2023-12-09T10:04:12.253Z,-1.75
2023-12-09T10:06:43.845Z,-1.74
2023-12-09T10:09:14.158Z,-1.73
2023-12-09T10:11:44.687Z,-1.70
2023-12-09T10:15:04.497Z,-1.64
2023-12-09T10:17:36.047Z,-1.60
2023-12-09T10:20:10.697Z,-1.58
2023-12-09T10:22:41.649Z,-1.58
2023-12-09T10:25:12.823Z,-1.56
2023-12-09T10:27:43.400Z,-1.53
2023-12-09T10:30:15.462Z,-1.51
2023-12-09T10:32:51.478Z,-1.51
2023-12-09T10:35:22.690Z,-1.50
2023-12-09T10:37:53.033Z,-1.49
2023-12-09T10:40:26.857Z,-1.54
2023-12-09T10:42:58.340Z,-1.56
2023-12-09T10:45:29.747Z,-1.57
2023-12-09T10:48:01.481Z,-1.55
2023-12-09T10:50:32.515Z,-1.55
2023-12-09T10:53:01.654Z,-1.54
2023-12-09T10:55:33.114Z,-1.57
2023-12-09T10:58:05.901Z,-1.61
2023-12-09T11:00:38.150Z,-1.61
2023-12-09T11:03:10.802Z,-1.60
2023-12-09T11:05:52.948Z,-1.59
2023-12-09T11:08:25.612Z,-1.55
2023-12-09T11:11:06.584Z,-1.56
2023-12-09T11:13:37.613Z,-1.59
2023-12-09T11:16:30.103Z,-1.57
2023-12-09T11:19:01.992Z,-1.54
2023-12-09T11:21:31.677Z,-1.49
2023-12-09T11:24:03.679Z,-1.44
2023-12-09T11:26:37.032Z,-1.42
2023-12-09T11:29:08.863Z,-1.41
2023-12-09T11:31:51.920Z,-1.39
2023-12-09T11:34:23.256Z,-1.37
2023-12-09T11:36:54.690Z,-1.39
2023-12-09T11:39:24.681Z,-1.37
2023-12-09T11:41:54.605Z,-1.35
2023-12-09T11:44:27.028Z,-1.39
2023-12-09T11:46:57.826Z,-1.42
2023-12-09T11:49:29.477Z,-1.41
2023-12-09T11:51:58.929Z,-1.39
2023-12-09T11:54:28.206Z,-1.39
2023-12-09T11:57:00.569Z,-1.40
2023-12-09T11:59:34.257Z,-1.43
2023-12-09T12:02:07.889Z,-1.44
2023-12-09T12:04:39.136Z,-1.45
2023-12-09T12:07:11.957Z,-1.48
2023-12-09T12:09:41.351Z,-1.46
2023-12-09T12:12:12.356Z,-1.42
2023-12-09T12:14:49.926Z,-1.41
2023-12-09T12:17:21.393Z,-1.45
2023-12-09T12:19:53.233Z,-1.46
2023-12-09T12:22:25.146Z,-1.47
2023-12-09T12:24:56.985Z,-1.49
2023-12-09T12:27:27.884Z,-1.52
2023-12-09T12:29:58.259Z,-1.50
2023-12-09T12:32:30.676Z,-1.48
2023-12-09T12:35:03.722Z,-1.50
2023-12-09T12:37:35.414Z,-1.53
2023-12-09T12:40:08.637Z,-1.53
2023-12-09T12:42:39.705Z,-1.53
2023-12-09T12:45:19.683Z,-1.53
2023-12-09T12:47:53.505Z,-1.51
2023-12-09T12:50:23.489Z,-1.49
2023-12-09T12:52:54.488Z,-1.50
2023-12-09T12:55:24.207Z,-1.50
2023-12-09T12:57:57.025Z,-1.52
2023-12-09T13:00:28.127Z,-1.52
2023-12-09T13:02:59.352Z,-1.53
2023-12-09T13:05:31.069Z,-1.51
2023-12-09T13:08:01.855Z,-1.49
2023-12-09T13:10:34.473Z,-1.50
2023-12-09T13:13:04.196Z,-1.49
2023-12-09T13:16:29.295Z,-1.49
2023-12-09T13:19:00.095Z,-1.51
2023-12-09T13:21:31.079Z,-1.51
2023-12-09T13:24:03.439Z,-1.48
2023-12-09T13:26:34.184Z,-1.47
2023-12-09T13:29:09.343Z,-1.48
2023-12-09T13:31:38.416Z,-1.50
2023-12-09T13:34:07.750Z,-1.50
2023-12-09T13:36:41.154Z,-1.49
2023-12-09T13:39:13.349Z,-1.49
2023-12-09T13:41:48.286Z,-1.47
2023-12-09T13:44:18.038Z,-1.45
2023-12-09T13:46:47.836Z,-1.45
2023-12-09T13:49:23.280Z,-1.46
2023-12-09T13:51:56.099Z,-1.47
2023-12-09T13:54:27.763Z,-1.47
2023-12-09T13:56:58.776Z,-1.46
2023-12-09T13:59:28.545Z,-1.45
2023-12-09T14:02:00.365Z,-1.43
2023-12-09T14:04:32.236Z,-1.43
2023-12-09T14:07:03.999Z,-1.42
2023-12-09T14:09:35.610Z,-1.43
2023-12-09T14:12:06.413Z,-1.44
2023-12-09T14:14:40.082Z,-1.46
2023-12-09T14:17:13.310Z,-1.47
2023-12-09T14:19:42.751Z,-1.47
2023-12-09T14:22:14.003Z,-1.47
2023-12-09T14:24:44.338Z,-1.46
2023-12-09T14:27:13.713Z,-1.46
2023-12-09T14:29:45.588Z,-1.45
2023-12-09T14:32:15.616Z,-1.45
2023-12-09T14:34:46.188Z,-1.45
2023-12-09T14:37:17.398Z,-1.44
2023-12-09T14:39:50.827Z,-1.42
2023-12-09T14:42:24.143Z,-1.40
2023-12-09T14:44:53.776Z,-1.37
2023-12-09T14:47:28.942Z,-1.35
2023-12-09T14:49:59.205Z,-1.34
2023-12-09T14:52:30.673Z,-1.31
2023-12-09T14:55:00.489Z,-1.29
2023-12-09T14:57:32.537Z,-1.28
2023-12-09T15:00:02.212Z,-1.27
2023-12-09T15:02:34.615Z,-1.25
2023-12-09T15:05:05.008Z,-1.26
2023-12-09T15:07:36.006Z,-1.25
2023-12-09T15:10:07.247Z,-1.23
2023-12-09T15:12:37.887Z,-1.21
2023-12-09T15:15:08.209Z,-1.19
2023-12-09T15:17:41.364Z,-1.16
2023-12-09T15:20:18.817Z,-1.15
2023-12-09T15:22:52.669Z,-1.14
2023-12-09T15:25:28.430Z,-1.14
2023-12-09T15:27:59.355Z,-1.13
2023-12-09T15:30:31.957Z,-1.12
2023-12-09T15:33:03.296Z,-1.10
2023-12-09T15:35:34.129Z,-1.10
2023-12-09T15:38:10.508Z,-1.10
2023-12-09T15:40:41.327Z,-1.09
2023-12-09T15:43:12.104Z,-1.07
2023-12-09T15:45:41.955Z,-1.07
2023-12-09T15:48:11.956Z,-1.08
2023-12-09T15:50:42.477Z,-1.06
2023-12-09T15:53:11.965Z,-1.05
2023-12-09T15:55:41.746Z,-1.05
2023-12-09T15:58:11.689Z,-1.04
2023-12-09T16:00:44.753Z,-1.03
2023-12-09T16:03:17.476Z,-1.00
2023-12-09T16:05:49.595Z,-0.98
2023-12-09T16:08:19.678Z,-0.97
2023-12-09T16:10:50.117Z,-0.95
2023-12-09T16:13:20.261Z,-0.94
2023-12-09T16:15:50.117Z,-0.94
2023-12-09T16:18:20.306Z,-0.93
2023-12-09T16:20:50.568Z,-0.92
2023-12-09T16:23:20.026Z,-0.91
2023-12-09T16:25:50.142Z,-0.89
2023-12-09T16:28:20.453Z,-0.87
2023-12-09T16:30:51.449Z,-0.85
2023-12-09T16:33:21.823Z,-0.84
2023-12-09T16:35:51.701Z,-0.82
2023-12-09T16:38:21.653Z,-0.80
2023-12-09T16:40:51.448Z,-0.78
2023-12-09T16:43:22.548Z,-0.77
2023-12-09T16:45:56.950Z,-0.77
2023-12-09T16:48:27.127Z,-0.75
2023-12-09T16:50:58.191Z,-0.73
2023-12-09T16:53:28.630Z,-0.72
2023-12-09T16:56:01.172Z,-0.70
2023-12-09T16:58:32.837Z,-0.68
2023-12-09T17:01:08.257Z,-0.66
2023-12-09T17:03:38.641Z,-0.64
2023-12-09T17:06:09.130Z,-0.62
2023-12-09T17:08:38.497Z,-0.60
2023-12-09T17:11:07.818Z,-0.58
2023-12-09T17:13:40.165Z,-0.56
2023-12-09T17:16:12.698Z,-0.54
2023-12-09T17:18:45.475Z,-0.54
2023-12-09T17:21:15.255Z,-0.52
2023-12-09T17:23:48.342Z,-0.50
2023-12-09T17:26:18.629Z,-0.49
2023-12-09T17:28:47.939Z,-0.48
2023-12-09T17:31:21.380Z,-0.46
2023-12-09T17:33:55.633Z,-0.42
2023-12-09T17:36:27.559Z,-0.41
2023-12-09T17:38:59.123Z,-0.40
2023-12-09T17:41:29.481Z,-0.38
2023-12-09T17:44:01.036Z,-0.36
2023-12-09T17:46:30.466Z,-0.36
2023-12-09T17:49:01.767Z,-0.36
2023-12-09T17:51:31.524Z,-0.35
2023-12-09T17:54:04.663Z,-0.34
2023-12-09T17:56:35.376Z,-0.33
2023-12-09T17:59:04.940Z,-0.32
2023-12-09T18:01:35.533Z,-0.32
2023-12-09T18:04:06.341Z,-0.33
2023-12-09T18:06:36.900Z,-0.32
2023-12-09T18:09:08.380Z,-0.30
2023-12-09T18:11:38.636Z,-0.28
2023-12-09T18:14:07.920Z,-0.26
2023-12-09T18:16:40.606Z,-0.24
2023-12-09T18:19:10.594Z,-0.24
2023-12-09T18:21:42.257Z,-0.22
2023-12-09T18:24:11.592Z,-0.22
2023-12-09T18:26:44.704Z,-0.22
2023-12-09T18:29:14.460Z,-0.21
2023-12-09T18:31:45.186Z,-0.19
2023-12-09T18:34:15.687Z,-0.19
2023-12-09T18:36:45.414Z,-0.17
2023-12-09T18:39:20.962Z,-0.15
2023-12-09T18:41:50.369Z,-0.14
2023-12-09T18:44:19.635Z,-0.14
2023-12-09T18:46:48.891Z,-0.13
2023-12-09T18:49:18.569Z,-0.12
2023-12-09T18:51:49.056Z,-0.11
2023-12-09T18:54:23.497Z,-0.10
2023-12-09T18:56:53.210Z,-0.08
2023-12-09T18:59:24.556Z,-0.07
2023-12-09T19:02:04.487Z,-0.07
2023-12-09T19:04:42.917Z,-0.06
2023-12-09T19:07:14.836Z,-0.05
2023-12-09T19:09:45.557Z,-0.04
2023-12-09T19:12:17.640Z,-0.04
2023-12-09T19:14:54.752Z,-0.04
2023-12-09T19:17:25.393Z,-0.04
2023-12-09T19:19:59.193Z,-0.03
2023-12-09T19:22:29.978Z,-0.02
2023-12-09T19:25:00.591Z,-0.02
2023-12-09T19:27:30.123Z,-0.02
2023-12-09T19:30:04.190Z,-0.01
2023-12-09T19:32:35.053Z,0.00
2023-12-09T19:35:04.854Z,0.02
2023-12-09T19:37:37.010Z,0.04
2023-12-09T19:40:07.188Z,0.03
2023-12-09T19:42:38.698Z,0.02
2023-12-09T19:45:13.529Z,0.04
2023-12-09T19:47:43.010Z,0.04
2023-12-09T19:50:16.633Z,0.04
2023-12-09T19:52:48.163Z,0.05
2023-12-09T19:55:18.750Z,0.07
2023-12-09T19:57:51.095Z,0.08
2023-12-09T20:00:23.087Z,0.09
2023-12-09T20:02:56.819Z,0.10
2023-12-09T20:05:26.343Z,0.11
2023-12-09T20:07:55.514Z,0.11
2023-12-09T20:10:27.843Z,0.12
2023-12-09T20:12:59.999Z,0.13
2023-12-09T20:15:38.169Z,0.14
2023-12-09T20:18:11.604Z,0.15
2023-12-09T20:20:43.132Z,0.15
2023-12-09T20:23:13.022Z,0.17
2023-12-09T20:25:45.046Z,0.18
2023-12-09T20:28:23.727Z,0.18
2023-12-09T20:30:54.995Z,0.17
2023-12-09T20:33:29.202Z,0.18
2023-12-09T20:36:01.838Z,0.18
2023-12-09T20:38:33.919Z,0.18
2023-12-09T20:41:03.928Z,0.18
2023-12-09T20:43:34.743Z,0.19
2023-12-09T20:46:05.196Z,0.20
2023-12-09T20:48:39.859Z,0.21
2023-12-09T20:51:10.391Z,0.21
2023-12-09T20:53:40.145Z,0.22
2023-12-09T20:56:21.194Z,0.22
2023-12-09T20:58:51.611Z,0.23
2023-12-09T21:01:22.272Z,0.24
2023-12-09T21:03:51.572Z,0.23
2023-12-09T21:06:26.587Z,0.25
2023-12-09T21:08:59.000Z,0.25
2023-12-09T21:11:33.331Z,0.26
2023-12-09T21:14:08.196Z,0.26
2023-12-09T21:16:42.802Z,0.27
2023-12-09T21:19:14.215Z,0.28
2023-12-09T21:21:43.792Z,0.28
2023-12-09T21:24:14.119Z,0.28
2023-12-09T21:26:45.839Z,0.29
2023-12-09T21:29:21.212Z,0.30
2023-12-09T21:31:50.805Z,0.30
2023-12-09T21:34:21.809Z,0.32
2023-12-09T21:36:56.495Z,0.33
2023-12-09T21:39:30.700Z,0.33
2023-12-09T21:42:02.367Z,0.34
2023-12-09T21:44:33.666Z,0.35
2023-12-09T21:47:05.615Z,0.36
2023-12-09T21:49:36.923Z,0.37
2023-12-09T21:52:13.796Z,0.37
2023-12-09T21:54:46.494Z,0.37
2023-12-09T21:57:20.834Z,0.38
2023-12-09T21:59:51.745Z,0.38
2023-12-09T22:02:28.092Z,0.40
2023-12-09T22:05:00.224Z,0.40
2023-12-09T22:07:31.315Z,0.40
2023-12-09T22:10:02.438Z,0.39
2023-12-09T22:12:31.843Z,0.40
2023-12-09T22:15:30.466Z,0.40
2023-12-09T22:18:01.690Z,0.40
2023-12-09T22:20:33.861Z,0.39
2023-12-09T22:23:05.472Z,0.37
2023-12-09T22:25:36.204Z,0.38
2023-12-09T22:28:05.654Z,0.37
2023-12-09T22:30:35.438Z,0.37
2023-12-09T22:33:09.775Z,0.37
2023-12-09T22:35:39.335Z,0.39
2023-12-09T22:38:09.971Z,0.41
2023-12-09T22:40:43.342Z,0.41
2023-12-09T22:43:13.417Z,0.43
2023-12-09T22:45:43.118Z,0.44
2023-12-09T22:48:15.301Z,0.44
2023-12-09T22:50:46.871Z,0.44
2023-12-09T22:53:18.744Z,0.44
2023-12-09T22:55:47.917Z,0.44
2023-12-09T22:58:18.667Z,0.44
2023-12-09T23:00:49.022Z,0.44
2023-12-09T23:03:20.675Z,0.44
2023-12-09T23:05:51.075Z,0.42
2023-12-09T23:08:22.389Z,0.41
2023-12-09T23:10:51.406Z,0.40
2023-12-09T23:13:22.623Z,0.40
2023-12-09T23:17:09.270Z,0.41
2023-12-09T23:19:42.525Z,0.41
2023-12-09T23:22:12.316Z,0.41
2023-12-09T23:24:44.198Z,0.41
2023-12-09T23:27:13.414Z,0.39
2023-12-09T23:29:45.357Z,0.39
2023-12-09T23:32:16.253Z,0.38
2023-12-09T23:34:46.481Z,0.38
2023-12-09T23:37:17.868Z,0.37
2023-12-09T23:39:48.777Z,0.37
2023-12-09T23:42:18.470Z,0.37
2023-12-09T23:44:48.700Z,0.36
2023-12-09T23:47:22.449Z,0.36
2023-12-09T23:49:53.646Z,0.36
2023-12-09T23:52:27.469Z,0.36
2023-12-09T23:55:01.601Z,0.35
2023-12-09T23:57:31.599Z,0.35
